Olmsted Falls, Ohio
Current Conditions -  °F | °C
As of 10:51 AM on Thursday 27 Nov 2014 (Local Time) from KCLE Reporting Station
Light Snow Light Snow  
Wind Chill: 22°   Ceiling: 5000
Heat Index: 31°   Visibility: 9mi
Dew Point: 24°   Wind: 12mph
Humidity: 76%   Direction: 300°WNW
Pressure: 30.18"   Gusts: NA
Location:  41.37°N, 81.91°W
Report Text: KCLE 271551Z 30010KT 9SM -SN FEW025 OVC050 M01/M04 A3018 RMK AO2 SLP227 P0000 T10061044 $
Loading
Personal Weather Stations






























Interactive Weather Map New forecast layout! Learn more

10-Day Weather Forecast

Advertisements
Track Severe Weather on mobile